createdAt,value
2018-09-09T00:00:37.029Z,92470.44
2018-09-09T00:03:12.718Z,92468.95
2018-09-09T00:05:47.373Z,92472.83
2018-09-09T00:08:22.240Z,92475.05
2018-09-09T00:10:56.941Z,92479.95
2018-09-09T00:13:31.789Z,92476.62
2018-09-09T00:16:06.992Z,92473.62
2018-09-09T00:18:41.764Z,92469.67
2018-09-09T00:21:16.496Z,92465.86
2018-09-09T00:23:51.440Z,92465.42
2018-09-09T00:26:26.591Z,92464.98
2018-09-09T00:29:01.610Z,92459.78
2018-09-09T00:31:36.786Z,92465.96
2018-09-09T00:34:11.686Z,92459.06
2018-09-09T00:36:46.402Z,92461.60
2018-09-09T00:39:21.172Z,92469.39
2018-09-09T00:41:55.897Z,92463.44
2018-09-09T00:44:30.666Z,92467.82
2018-09-09T00:47:05.389Z,92464.19
2018-09-09T00:49:45.212Z,92469.59
2018-09-09T00:52:25.302Z,92469.92
2018-09-09T00:55:00.202Z,92474.27
2018-09-09T00:57:35.022Z,92476.33
2018-09-09T01:00:09.907Z,92475.57
2018-09-09T01:02:45.704Z,92479.58
2018-09-09T01:05:21.401Z,92470.37
2018-09-09T01:07:56.185Z,92470.44
2018-09-09T01:10:30.927Z,92466.83
2018-09-09T01:13:05.954Z,92462.20
2018-09-09T01:15:40.736Z,92464.89
2018-09-09T01:18:15.420Z,92471.02
2018-09-09T01:20:50.153Z,92473.94
2018-09-09T01:23:24.930Z,92476.86
2018-09-09T01:25:59.739Z,92478.83
2018-09-09T01:28:38.017Z,92472.27
2018-09-09T01:31:15.840Z,92472.10
2018-09-09T01:33:50.714Z,92473.04
2018-09-09T01:36:25.455Z,92471.54
2018-09-09T01:39:01.019Z,92467.95
2018-09-09T01:41:35.733Z,92472.96
2018-09-09T01:44:11.016Z,92480.00
2018-09-09T01:46:45.764Z,92474.31
2018-09-09T01:49:20.382Z,92463.12
2018-09-09T01:51:55.817Z,92472.55
2018-09-09T01:54:30.548Z,92468.20
2018-09-09T01:57:05.333Z,92465.70
2018-09-09T01:59:40.094Z,92465.25
2018-09-09T02:02:15.759Z,92465.25
2018-09-09T02:04:50.593Z,92461.05
2018-09-09T02:07:25.393Z,92466.18
2018-09-09T02:10:00.103Z,92464.91
2018-09-09T02:12:35.139Z,92459.95
2018-09-09T02:15:12.436Z,92457.47
2018-09-09T02:17:47.310Z,92461.11
2018-09-09T02:20:21.914Z,92456.29
2018-09-09T02:22:56.755Z,92457.47
2018-09-09T02:25:31.595Z,92463.01
2018-09-09T02:28:06.326Z,92458.25
2018-09-09T02:30:41.037Z,92458.17
2018-09-09T02:33:16.122Z,92465.38
2018-09-09T02:35:50.988Z,92463.02
2018-09-09T02:38:25.738Z,92461.09
2018-09-09T02:41:00.473Z,92465.30
2018-09-09T02:43:36.132Z,92469.09
2018-09-09T02:46:11.055Z,92477.69
2018-09-09T02:48:45.851Z,92477.09
2018-09-09T02:51:20.557Z,92479.70
2018-09-09T02:53:56.610Z,92486.13
2018-09-09T02:56:31.441Z,92483.59
2018-09-09T02:59:06.189Z,92483.98
2018-09-09T03:01:40.913Z,92482.31
2018-09-09T03:04:16.017Z,92488.36
2018-09-09T03:06:50.864Z,92494.92
2018-09-09T03:09:25.604Z,92494.67
2018-09-09T03:12:00.242Z,92482.41
2018-09-09T03:14:34.984Z,92479.72
2018-09-09T03:17:09.645Z,92479.92
2018-09-09T03:19:44.405Z,92479.41
2018-09-09T03:22:19.481Z,92478.54
2018-09-09T03:24:54.105Z,92475.31
2018-09-09T03:27:29.363Z,92481.11
2018-09-09T03:30:04.297Z,92482.21
2018-09-09T03:32:39.172Z,92489.17
2018-09-09T03:35:14.119Z,92488.50
2018-09-09T03:37:48.840Z,92491.75
2018-09-09T03:40:23.590Z,92491.23
2018-09-09T03:42:58.292Z,92490.56
2018-09-09T03:45:33.098Z,92497.71
2018-09-09T03:48:07.784Z,92501.70
2018-09-09T03:50:43.177Z,92501.27
2018-09-09T03:53:18.285Z,92496.41
2018-09-09T03:55:52.931Z,92510.14
2018-09-09T03:58:27.628Z,92504.95
2018-09-09T04:01:02.402Z,92511.53
2018-09-09T04:03:37.499Z,92504.09
2018-09-09T04:06:12.380Z,92506.30
2018-09-09T04:08:47.134Z,92503.16
2018-09-09T04:11:21.966Z,92502.04
2018-09-09T07:13:49.668Z,92540.02
2018-09-09T07:16:19.304Z,92532.28
2018-09-09T07:18:48.956Z,92534.41
2018-09-09T07:21:18.878Z,92536.25
2018-09-09T07:23:48.508Z,92539.15
2018-09-09T07:26:18.275Z,92543.42
2018-09-09T07:28:47.984Z,92532.80
2018-09-09T07:31:17.668Z,92534.44
2018-09-09T07:33:48.621Z,92521.59
2018-09-09T07:36:19.716Z,92519.79
2018-09-09T07:38:51.223Z,92522.36
2018-09-09T07:41:22.018Z,92523.51
2018-09-09T07:43:53.179Z,92526.68
2018-09-09T07:46:24.120Z,92529.98
2018-09-09T07:48:56.115Z,92527.86
2018-09-09T07:51:27.159Z,92521.50
2018-09-09T07:53:58.124Z,92519.49
2018-09-09T07:56:29.242Z,92512.62
2018-09-09T07:59:00.671Z,92508.41
2018-09-09T08:01:31.495Z,92510.66
2018-09-09T08:04:02.262Z,92502.67
2018-09-09T08:06:33.109Z,92496.56
2018-09-09T08:09:05.093Z,92496.27
2018-09-09T08:11:38.789Z,92498.41
2018-09-09T08:14:11.242Z,92496.52
2018-09-09T08:16:42.041Z,92493.79
2018-09-09T08:19:12.808Z,92494.80
2018-09-09T08:21:43.676Z,92491.13
2018-09-09T08:24:14.490Z,92492.45
2018-09-09T08:26:45.282Z,92489.58
2018-09-09T08:29:16.970Z,92487.02
2018-09-09T08:31:47.800Z,92484.85
2018-09-09T08:34:18.607Z,92487.17
2018-09-09T08:36:49.442Z,92480.83
2018-09-09T08:39:20.209Z,92482.45
2018-09-09T08:41:51.023Z,92486.63
2018-09-09T08:44:21.782Z,92475.78
2018-09-09T08:46:53.171Z,92474.91
2018-09-09T08:49:24.002Z,92479.02
2018-09-09T08:51:55.318Z,92479.92
2018-09-09T08:54:27.060Z,92476.83
2018-09-09T08:56:58.323Z,92476.27
2018-09-09T08:59:29.076Z,92465.29
2018-09-09T09:01:59.954Z,92465.45
2018-09-09T09:04:30.700Z,92463.05
2018-09-09T09:07:02.270Z,92460.53
2018-09-09T09:09:33.121Z,92462.78
2018-09-09T09:12:09.951Z,92452.30
2018-09-09T09:14:42.919Z,92451.61
2018-09-09T09:17:13.921Z,92453.10
2018-09-09T09:19:44.838Z,92444.86
2018-09-09T09:22:16.348Z,92446.23
2018-09-09T09:24:48.015Z,92438.47
2018-09-09T09:27:18.837Z,92440.30
2018-09-09T09:29:54.597Z,92435.86
2018-09-09T09:32:25.760Z,92440.35
2018-09-09T09:34:56.989Z,92434.44
2018-09-09T09:37:28.111Z,92433.97
2018-09-09T09:39:58.862Z,92431.51
2018-09-09T09:42:30.003Z,92428.02
2018-09-09T09:45:00.807Z,92422.39
2018-09-09T09:47:31.829Z,92423.21
2018-09-09T09:50:02.650Z,92425.97
2018-09-09T09:52:34.306Z,92426.47
2018-09-09T09:55:05.698Z,92430.88
2018-09-09T09:57:37.033Z,92414.58
2018-09-09T10:00:11.613Z,92421.53
2018-09-09T10:02:45.172Z,92417.50
2018-09-09T10:05:19.301Z,92419.50
2018-09-09T10:08:07.374Z,92410.72
2018-09-09T10:10:39.817Z,92410.58
2018-09-09T10:13:15.618Z,92412.45
2018-09-09T10:15:49.295Z,92410.41
2018-09-09T10:18:21.717Z,92413.05
2018-09-09T10:20:52.510Z,92404.72
2018-09-09T10:23:23.383Z,92415.00
2018-09-09T10:25:54.224Z,92414.78
2018-09-09T10:28:25.003Z,92414.06
2018-09-09T10:30:55.872Z,92412.63
2018-09-09T10:33:26.782Z,92410.25
2018-09-09T10:35:57.565Z,92409.75
2018-09-09T10:38:28.425Z,92402.22
2018-09-09T10:41:01.607Z,92400.89
2018-09-09T10:43:32.519Z,92401.01
2018-09-09T10:46:04.179Z,92393.47
2018-09-09T10:48:35.893Z,92397.53
2018-09-09T10:51:06.966Z,92394.77
2018-09-09T10:53:37.804Z,92389.91
2018-09-09T10:56:09.084Z,92389.45
2018-09-09T10:58:40.050Z,92388.25
2018-09-09T11:01:10.855Z,92387.53
2018-09-09T11:03:44.734Z,92390.74
2018-09-09T11:06:15.514Z,92379.66
2018-09-09T11:08:46.347Z,92385.96
2018-09-09T11:11:17.367Z,92375.91
2018-09-09T11:13:49.099Z,92376.01
2018-09-09T11:16:21.057Z,92369.67
2018-09-09T11:18:52.200Z,92367.57
2018-09-09T11:21:24.283Z,92368.83
2018-09-09T11:23:57.576Z,92368.27
2018-09-09T11:26:29.561Z,92357.58
2018-09-09T11:29:02.185Z,92357.78
2018-09-09T11:31:33.485Z,92361.06
2018-09-09T11:34:05.053Z,92356.89
2018-09-09T11:36:37.015Z,92358.34
2018-09-09T11:39:09.777Z,92358.98
2018-09-09T11:41:42.199Z,92347.80
2018-09-09T11:44:13.064Z,92349.91
2018-09-09T11:46:48.118Z,92348.91
2018-09-09T11:49:19.336Z,92347.81
2018-09-09T11:51:51.475Z,92346.25
2018-09-09T11:54:22.468Z,92338.81
2018-09-09T11:56:53.654Z,92339.16
2018-09-09T11:59:24.690Z,92327.56
2018-09-09T12:01:55.848Z,92324.98
2018-09-09T12:04:26.945Z,92327.39
2018-09-09T12:06:57.701Z,92327.35
2018-09-09T12:09:28.585Z,92322.28
2018-09-09T12:12:02.220Z,92320.39
2018-09-09T12:14:34.151Z,92315.98
2018-09-09T12:17:05.176Z,92312.45
2018-09-09T12:19:35.988Z,92311.17
2018-09-09T12:22:08.405Z,92311.44
2018-09-09T12:24:39.255Z,92303.87
2018-09-09T12:27:10.001Z,92302.94
2018-09-09T12:29:40.794Z,92303.84
2018-09-09T12:32:11.657Z,92299.33
2018-09-09T12:34:42.928Z,92302.53
2018-09-09T12:37:13.873Z,92301.59
2018-09-09T12:39:49.888Z,92301.01
2018-09-09T12:42:20.681Z,92299.19
2018-09-09T12:44:56.487Z,92296.75
2018-09-09T12:47:32.791Z,92292.09
2018-09-09T12:50:03.590Z,92295.20
2018-09-09T12:52:35.018Z,92297.36
2018-09-09T12:55:06.800Z,92298.86
2018-09-09T12:57:40.602Z,92295.28
2018-09-09T13:00:11.601Z,92292.22
2018-09-09T13:02:42.726Z,92287.17
2018-09-09T13:05:13.576Z,92289.08
2018-09-09T13:07:44.345Z,92283.08
2018-09-09T13:10:15.612Z,92278.88
2018-09-09T13:12:51.515Z,92277.48
2018-09-09T13:15:22.362Z,92278.55
2018-09-09T13:17:53.886Z,92279.27
2018-09-09T13:20:24.715Z,92279.52
2018-09-09T13:22:55.457Z,92270.52
2018-09-09T13:25:27.043Z,92270.08
2018-09-09T13:27:57.959Z,92271.61
2018-09-09T13:30:28.947Z,92273.91
2018-09-09T13:32:59.723Z,92273.85
2018-09-09T13:35:30.669Z,92266.74
2018-09-09T13:38:01.433Z,92278.14
2018-09-09T13:40:33.209Z,92271.67
2018-09-09T13:43:04.879Z,92277.20
2018-09-09T13:45:35.695Z,92272.37
2018-09-09T13:48:06.554Z,92278.86
2018-09-09T13:50:38.353Z,92269.09
2018-09-09T13:53:09.725Z,92272.70
2018-09-09T13:55:40.723Z,92271.27
2018-09-09T13:58:11.699Z,92271.08
2018-09-09T14:00:43.105Z,92269.20
2018-09-09T14:03:14.824Z,92276.59
2018-09-09T14:05:46.453Z,92274.03
2018-09-09T14:08:17.255Z,92269.48
2018-09-09T14:10:48.099Z,92263.13
2018-09-09T14:13:18.865Z,92260.85
2018-09-09T14:15:49.766Z,92262.48
2018-09-09T14:18:21.159Z,92250.72
2018-09-09T14:20:51.974Z,92250.02
2018-09-09T14:23:22.742Z,92250.67
2018-09-09T14:25:53.582Z,92251.44
2018-09-09T14:28:24.353Z,92259.02
2018-09-09T14:30:55.332Z,92252.75
2018-09-09T14:33:26.405Z,92262.95
2018-09-09T14:35:57.196Z,92256.63
2018-09-09T14:38:28.046Z,92258.44
2018-09-09T14:40:58.886Z,92255.67
2018-09-09T14:43:29.832Z,92265.30
2018-09-09T14:46:00.824Z,92264.65
2018-09-09T14:48:31.603Z,92268.40
2018-09-09T14:51:02.815Z,92263.31
2018-09-09T14:53:33.582Z,92268.14
2018-09-09T14:56:05.042Z,92271.67
2018-09-09T14:58:35.855Z,92272.92
2018-09-09T15:01:07.432Z,92278.20
2018-09-09T15:03:38.180Z,92276.03
2018-09-09T15:06:09.204Z,92280.42
2018-09-09T15:08:40.229Z,92283.52
2018-09-09T15:11:11.079Z,92285.84
2018-09-09T15:13:41.831Z,92293.81
2018-09-09T15:16:13.282Z,92302.59
2018-09-09T15:18:44.372Z,92319.27
2018-09-09T15:21:15.178Z,92327.63
2018-09-09T15:23:45.935Z,92319.62
2018-09-09T15:26:16.915Z,92313.56
2018-09-09T15:28:47.807Z,92320.01
2018-09-09T15:31:18.849Z,92317.99
2018-09-09T15:33:49.628Z,92317.23
2018-09-09T15:36:20.430Z,92317.14
2018-09-09T15:38:51.930Z,92319.73
2018-09-09T15:41:22.817Z,92314.30
2018-09-09T15:43:53.588Z,92319.45
2018-09-09T15:46:29.392Z,92323.93
2018-09-09T15:49:01.071Z,92328.84
2018-09-09T15:51:31.884Z,92331.52
2018-09-09T15:54:02.653Z,92331.39
2018-09-09T15:56:33.475Z,92334.39
2018-09-09T15:59:04.917Z,92330.78
2018-09-09T16:01:36.101Z,92326.66
2018-09-09T16:04:06.852Z,92332.78
2018-09-09T16:06:37.696Z,92338.30
2018-09-09T16:09:10.034Z,92334.39
2018-09-09T16:11:41.127Z,92333.25
2018-09-09T16:14:12.736Z,92337.34
2018-09-09T16:16:43.604Z,92332.96
2018-09-09T16:19:14.457Z,92333.09
2018-09-09T16:21:45.287Z,92329.31
2018-09-09T16:24:16.040Z,92333.35
2018-09-09T16:26:46.869Z,92330.64
2018-09-09T16:29:18.184Z,92331.66
2018-09-09T16:31:49.105Z,92334.40
2018-09-09T16:34:19.973Z,92335.34
2018-09-09T16:36:50.884Z,92337.94
2018-09-09T16:39:21.704Z,92339.53
2018-09-09T16:41:52.521Z,92333.92
2018-09-09T16:44:23.318Z,92342.67
2018-09-09T16:46:55.196Z,92337.56
2018-09-09T16:49:26.193Z,92337.67
2018-09-09T16:51:56.989Z,92336.55
2018-09-09T16:54:27.758Z,92330.33
2018-09-09T16:56:59.169Z,92330.25
2018-09-09T16:59:30.062Z,92336.03
2018-09-09T17:02:00.909Z,92340.58
2018-09-09T17:04:31.661Z,92339.88
2018-09-09T17:07:02.456Z,92351.93
2018-09-09T17:09:33.229Z,92362.61
2018-09-09T17:12:04.038Z,92360.40
2018-09-09T17:14:34.777Z,92363.61
2018-09-09T17:17:05.698Z,92372.41
2018-09-09T17:19:36.548Z,92373.70
2018-09-09T17:22:07.516Z,92370.77
2018-09-09T17:24:38.284Z,92369.99
2018-09-09T17:27:09.120Z,92370.27
2018-09-09T17:29:39.919Z,92377.31
2018-09-09T17:32:10.832Z,92374.14
2018-09-09T17:34:41.766Z,92383.75
2018-09-09T17:37:12.569Z,92385.50
2018-09-09T17:39:43.806Z,92395.82
2018-09-09T17:42:14.867Z,92391.64
2018-09-09T17:44:45.632Z,92400.80
2018-09-09T17:47:16.501Z,92404.42
2018-09-09T17:49:47.288Z,92400.16
2018-09-09T17:52:18.077Z,92412.02
2018-09-09T17:54:48.866Z,92406.00
2018-09-09T17:57:20.830Z,92415.20
2018-09-09T17:59:52.138Z,92426.55
2018-09-09T18:02:23.102Z,92432.75
2018-09-09T18:04:53.861Z,92437.94
2018-09-09T18:07:24.658Z,92440.53
2018-09-09T18:09:56.538Z,92441.98
2018-09-09T18:12:27.962Z,92444.82
2018-09-09T18:14:58.828Z,92455.13
2018-09-09T18:17:29.952Z,92454.19
2018-09-09T18:20:01.072Z,92462.75
2018-09-09T18:22:31.969Z,92464.70
2018-09-09T18:25:04.019Z,92469.19
2018-09-09T18:27:34.848Z,92473.98
2018-09-09T18:30:06.146Z,92467.75
2018-09-09T18:32:38.004Z,92468.41
2018-09-09T18:35:09.666Z,92474.42
2018-09-09T18:37:41.171Z,92468.84
2018-09-09T18:40:11.951Z,92471.86
2018-09-09T18:42:42.777Z,92471.42
2018-09-09T18:45:13.735Z,92475.80
2018-09-09T18:47:45.183Z,92483.34
2018-09-09T18:50:16.263Z,92478.48
2018-09-09T18:52:53.830Z,92474.91
2018-09-09T18:55:25.688Z,92481.33
2018-09-09T18:57:59.280Z,92469.56
2018-09-09T19:00:35.303Z,92481.20
2018-09-09T19:03:08.405Z,92478.48
2018-09-09T19:05:39.240Z,92471.91
2018-09-09T19:08:10.573Z,92464.83
2018-09-09T19:10:41.809Z,92466.73
2018-09-09T19:13:12.593Z,92466.98
2018-09-09T19:15:43.358Z,92464.83
2018-09-09T19:18:14.863Z,92469.89
2018-09-09T19:20:45.797Z,92469.93
2018-09-09T19:23:17.226Z,92472.55
2018-09-09T19:25:47.996Z,92483.94
2018-09-09T19:28:18.811Z,92480.48
2018-09-09T19:30:49.583Z,92480.09
2018-09-09T19:33:20.492Z,92474.54
2018-09-09T19:35:51.400Z,92464.84
2018-09-09T19:38:22.251Z,92463.14
2018-09-09T19:40:53.017Z,92468.70
2018-09-09T19:43:23.823Z,92468.39
2018-09-09T19:45:55.606Z,92467.64
2018-09-09T19:48:26.445Z,92464.21
2018-09-09T19:50:57.204Z,92466.93
2018-09-09T19:53:28.023Z,92465.08
2018-09-09T19:55:58.857Z,92465.19
2018-09-09T19:58:30.798Z,92463.34
2018-09-09T20:01:02.189Z,92469.65
2018-09-09T20:03:34.001Z,92476.66
2018-09-09T20:06:04.798Z,92472.08
2018-09-09T20:08:35.599Z,92481.52
2018-09-09T20:11:06.351Z,92480.31
2018-09-09T20:13:37.577Z,92476.99
2018-09-09T20:16:08.573Z,92481.72
2018-09-09T20:18:39.453Z,92477.64
2018-09-09T20:21:10.893Z,92469.92
2018-09-09T20:23:42.123Z,92473.23
2018-09-09T20:26:12.881Z,92480.73
2018-09-09T20:28:44.545Z,92479.97
2018-09-09T20:31:16.652Z,92475.64
2018-09-09T20:33:47.887Z,92480.17
2018-09-09T20:36:18.639Z,92481.70
2018-09-09T20:38:49.449Z,92481.52
2018-09-09T20:41:20.435Z,92489.40
2018-09-09T20:43:51.363Z,92488.23
2018-09-09T20:46:22.957Z,92493.63
2018-09-09T20:48:53.826Z,92491.91
2018-09-09T20:51:24.590Z,92496.16
2018-09-09T20:53:55.376Z,92493.75
2018-09-09T20:56:26.315Z,92494.86
2018-09-09T20:58:57.980Z,92503.18
2018-09-09T21:01:28.747Z,92509.00
2018-09-09T21:03:59.814Z,92501.58
2018-09-09T21:06:30.564Z,92505.48
2018-09-09T21:09:03.434Z,92502.69
2018-09-09T21:11:43.002Z,92502.01
2018-09-09T21:14:19.664Z,92496.88
2018-09-09T21:16:51.191Z,92497.91
2018-09-09T21:19:22.092Z,92498.42
2018-09-09T21:21:56.882Z,92496.25
2018-09-09T21:24:30.930Z,92498.25
2018-09-09T21:27:01.986Z,92494.37
2018-09-09T21:29:33.006Z,92489.66
2018-09-09T21:32:05.638Z,92494.76
2018-09-09T21:34:40.077Z,92504.02
2018-09-09T21:37:10.896Z,92502.08
2018-09-09T21:39:44.040Z,92495.89
2018-09-09T21:42:15.551Z,92498.83
2018-09-09T21:44:47.983Z,92501.91
2018-09-09T21:47:18.814Z,92510.63
2018-09-09T21:49:49.635Z,92505.73
2018-09-09T21:52:20.412Z,92494.98
2018-09-09T21:54:51.338Z,92498.67
2018-09-09T21:57:22.417Z,92504.02
2018-09-09T21:59:53.402Z,92498.00
2018-09-09T22:02:24.566Z,92496.98
2018-09-09T22:04:56.990Z,92498.73
2018-09-09T22:07:27.733Z,92509.15
2018-09-09T22:09:58.521Z,92506.95
2018-09-09T22:12:29.382Z,92504.55
2018-09-09T22:15:00.208Z,92499.23
2018-09-09T22:17:30.973Z,92499.06
2018-09-09T22:20:01.803Z,92508.42
2018-09-09T22:22:32.686Z,92507.84
2018-09-09T22:25:08.715Z,92498.69
2018-09-09T22:27:42.336Z,92499.52
2018-09-09T22:30:13.528Z,92498.73
2018-09-09T22:32:44.256Z,92498.45
2018-09-09T22:35:15.452Z,92506.83
2018-09-09T22:37:46.721Z,92505.78
2018-09-09T22:40:17.506Z,92501.08
2018-09-09T22:42:48.616Z,92502.41
2018-09-09T22:45:19.416Z,92502.36
2018-09-09T22:47:51.185Z,92497.55
2018-09-09T22:50:22.134Z,92494.72
2018-09-09T22:52:53.465Z,92501.53
2018-09-09T22:55:24.298Z,92500.63
2018-09-09T22:57:57.684Z,92507.54
2018-09-09T23:00:28.990Z,92508.64
2018-09-09T23:02:59.740Z,92500.97
2018-09-09T23:05:31.491Z,92502.23
2018-09-09T23:08:02.597Z,92507.41
2018-09-09T23:10:33.474Z,92502.69
2018-09-09T23:13:05.283Z,92504.38
2018-09-09T23:15:36.210Z,92503.33
2018-09-09T23:18:06.981Z,92508.08
2018-09-09T23:20:40.418Z,92509.88
2018-09-09T23:23:13.930Z,92507.48
2018-09-09T23:25:46.531Z,92502.77
2018-09-09T23:28:17.374Z,92512.61
2018-09-09T23:30:48.596Z,92511.30
2018-09-09T23:33:19.895Z,92512.23
2018-09-09T23:35:50.677Z,92504.45
2018-09-09T23:38:24.236Z,92501.11
2018-09-09T23:40:55.255Z,92501.48
2018-09-09T23:43:26.167Z,92504.80
2018-09-09T23:45:56.964Z,92512.56
2018-09-09T23:48:27.806Z,92511.67
2018-09-09T23:50:58.643Z,92515.42
2018-09-09T23:53:29.389Z,92513.72
2018-09-09T23:56:00.627Z,92513.09
2018-09-09T23:58:34.430Z,92518.47
